createdAt,value
2018-03-01T00:01:01.339Z,14.10
2018-03-01T00:03:28.889Z,12.90
2018-03-01T00:05:56.477Z,14.20
2018-03-01T00:08:24.020Z,15.10
2018-03-01T00:10:51.577Z,13.43
2018-03-01T00:13:19.137Z,13.07
2018-03-01T00:15:46.694Z,15.17
2018-03-01T00:18:14.247Z,13.03
2018-03-01T00:20:42.559Z,13.17
2018-03-01T00:23:10.119Z,14.53
2018-03-01T00:25:37.664Z,16.70
2018-03-01T00:28:05.223Z,16.30
2018-03-01T00:30:32.763Z,13.50
2018-03-01T00:33:01.093Z,14.10
2018-03-01T00:35:28.636Z,12.63
2018-03-01T00:37:56.195Z,14.70
2018-03-01T00:40:23.732Z,14.37
2018-03-01T00:42:52.070Z,14.77
2018-03-01T00:45:19.619Z,15.03
2018-03-01T00:47:47.153Z,15.90
2018-03-01T00:50:14.704Z,14.20
2018-03-01T00:52:42.242Z,15.20
2018-03-01T00:55:09.933Z,15.03
2018-03-01T00:57:37.484Z,15.03
2018-03-01T01:00:05.815Z,14.27
2018-03-01T01:02:33.369Z,13.23
2018-03-01T01:05:00.923Z,16.47
2018-03-01T01:07:28.473Z,13.63
2018-03-01T01:09:56.062Z,14.80
2018-03-01T01:12:23.604Z,14.13
2018-03-01T01:14:51.177Z,14.67
2018-03-01T01:17:18.732Z,13.73
2018-03-01T01:19:46.266Z,14.40
2018-03-01T01:22:13.828Z,13.03
2018-03-01T01:24:41.370Z,15.60
2018-03-01T01:27:08.919Z,12.93
2018-03-01T01:29:36.475Z,15.10
2018-03-01T01:32:04.804Z,15.43
2018-03-01T01:34:32.373Z,15.20
2018-03-01T01:36:59.923Z,15.23
2018-03-01T01:39:27.459Z,16.00
2018-03-01T01:41:55.016Z,15.63
2018-03-01T01:44:22.553Z,15.43
2018-03-01T01:46:50.888Z,15.40
2018-03-01T01:49:18.427Z,14.83
2018-03-01T01:51:45.998Z,14.73
2018-03-01T01:54:14.148Z,13.83
2018-03-01T01:56:41.730Z,14.43
2018-03-01T01:59:09.285Z,14.83
2018-03-01T02:01:36.823Z,14.70
2018-03-01T02:04:04.460Z,12.80
2018-03-01T02:06:32.773Z,15.83
2018-03-01T02:09:00.336Z,15.70
2018-03-01T02:11:27.876Z,14.30
2018-03-01T02:13:56.194Z,15.00
2018-03-01T02:16:23.741Z,14.37
2018-03-01T02:18:51.309Z,12.60
2018-03-01T02:21:18.853Z,14.10
2018-03-01T02:23:46.443Z,14.70
2018-03-01T02:26:13.988Z,15.90
2018-03-01T02:28:41.531Z,14.97
2018-03-01T02:31:09.095Z,14.93
2018-03-01T02:33:36.647Z,14.57
2018-03-01T02:36:04.217Z,15.03
2018-03-01T02:38:31.777Z,13.50
2018-03-01T02:40:59.341Z,15.03
2018-03-01T02:43:26.882Z,14.60
2018-03-01T02:45:54.469Z,15.10
2018-03-01T02:48:22.021Z,14.33
2018-03-01T02:50:49.595Z,13.67
2018-03-01T02:53:17.143Z,14.93
2018-03-01T02:55:44.694Z,14.73
2018-03-01T02:58:12.248Z,14.90
2018-03-01T03:00:40.589Z,13.57
2018-03-01T03:03:08.123Z,15.53
2018-03-01T03:05:35.670Z,15.20
2018-03-01T03:08:03.242Z,15.27
2018-03-01T03:10:30.788Z,16.03
2018-03-01T03:12:58.360Z,15.40
2018-03-01T03:15:25.923Z,14.27
2018-03-01T03:17:53.479Z,14.77
2018-03-01T03:20:21.024Z,14.97
2018-03-01T03:22:48.576Z,14.23
2018-03-01T03:25:16.118Z,13.83
2018-03-01T03:27:44.439Z,14.60
2018-03-01T03:30:11.996Z,14.20
2018-03-01T03:32:39.588Z,16.10
2018-03-01T03:35:07.143Z,13.30
2018-03-01T03:37:34.683Z,14.37
2018-03-01T03:40:02.246Z,13.70
2018-03-01T03:42:29.791Z,13.37
2018-03-01T03:44:57.349Z,12.73
2018-03-01T03:47:24.890Z,12.77
2018-03-01T03:49:53.212Z,13.53
2018-03-01T03:52:20.759Z,13.10
2018-03-01T03:54:48.453Z,13.83
2018-03-01T03:57:16.006Z,13.80
2018-03-01T03:59:43.572Z,13.47
2018-03-01T04:02:11.118Z,13.80
2018-03-01T04:04:38.702Z,13.13
2018-03-01T04:07:06.247Z,13.33
2018-03-01T04:09:33.813Z,13.70
2018-03-01T04:12:01.404Z,14.73
2018-03-01T04:14:29.729Z,13.23
2018-03-01T04:16:57.319Z,13.03
2018-03-01T04:19:24.874Z,14.37
2018-03-01T04:21:52.446Z,14.40
2018-03-01T04:24:19.989Z,15.40
2018-03-01T04:26:47.547Z,15.30
2018-03-01T04:29:15.079Z,13.67
2018-03-01T04:31:42.627Z,14.13
2018-03-01T04:34:10.938Z,14.83
2018-03-01T04:36:38.500Z,16.00
2018-03-01T04:39:06.045Z,13.93
2018-03-01T04:41:33.620Z,14.10
2018-03-01T04:44:01.159Z,12.47
2018-03-01T04:46:28.678Z,13.00
2018-03-01T04:48:56.213Z,15.50
2018-03-01T04:51:23.732Z,12.80
2018-03-01T04:53:51.267Z,13.73
2018-03-01T04:56:19.548Z,13.53
2018-03-01T04:58:47.852Z,12.87
2018-03-01T05:01:15.378Z,13.93
2018-03-01T05:03:42.906Z,13.20
2018-03-01T05:06:10.423Z,13.73
2018-03-01T05:08:37.956Z,13.53
2018-03-01T05:11:05.477Z,14.17
2018-03-01T05:13:33.014Z,13.50
2018-03-01T05:16:00.524Z,12.43
2018-03-01T05:18:28.053Z,12.67
2018-03-01T05:20:55.576Z,11.80
2018-03-01T05:23:23.899Z,12.70
2018-03-01T05:25:51.415Z,14.37
2018-03-01T05:28:19.703Z,13.37
2018-03-01T05:30:47.233Z,12.80
2018-03-01T05:33:14.760Z,12.63
2018-03-01T05:35:42.268Z,11.23
2018-03-01T05:38:10.573Z,11.27
2018-03-01T05:40:38.089Z,11.57
2018-03-01T05:43:05.612Z,11.73
2018-03-01T05:45:33.153Z,12.67
2018-03-01T05:48:00.679Z,12.90
2018-03-01T05:50:28.990Z,12.97
2018-03-01T05:52:56.509Z,10.90
2018-03-01T05:55:24.811Z,12.37
2018-03-01T05:57:52.341Z,13.20
2018-03-01T06:00:19.868Z,11.33
2018-03-01T06:02:47.388Z,10.70
2018-03-01T06:05:15.676Z,10.47
2018-03-01T06:07:43.353Z,10.20
2018-03-01T06:10:10.869Z,10.80
2018-03-01T06:12:39.174Z,10.80
2018-03-01T06:15:06.700Z,9.90
2018-03-01T06:17:34.227Z,11.37
2018-03-01T06:20:01.743Z,11.60
2018-03-01T06:22:30.085Z,12.27
2018-03-01T06:24:57.621Z,10.27
2018-03-01T06:27:25.185Z,12.20
2018-03-01T06:29:52.701Z,10.40
2018-03-01T06:32:21.005Z,11.30
2018-03-01T06:34:48.529Z,11.03
2018-03-01T06:37:16.829Z,9.93
2018-03-01T06:39:44.340Z,10.50
2018-03-01T06:42:11.883Z,9.47
2018-03-01T06:44:39.403Z,13.40
2018-03-01T06:47:06.916Z,10.93
2018-03-01T06:49:34.444Z,11.10
2018-03-01T06:52:01.951Z,10.50
2018-03-01T06:54:29.485Z,9.70
2018-03-01T06:56:56.995Z,10.03
2018-03-01T06:59:25.288Z,9.87
2018-03-01T07:01:52.803Z,8.70
2018-03-01T07:04:21.106Z,10.00
2018-03-01T07:06:49.391Z,9.63
2018-03-01T07:09:17.715Z,9.80
2018-03-01T07:11:45.336Z,9.87
2018-03-01T07:14:12.872Z,9.80
2018-03-01T07:16:41.147Z,11.77
2018-03-01T07:19:08.669Z,10.07
2018-03-01T07:21:36.192Z,9.60
2018-03-01T07:24:03.699Z,9.07
2018-03-01T07:26:31.223Z,9.70
2018-03-01T07:28:58.736Z,10.53
2018-03-01T07:31:26.261Z,9.07
2018-03-01T07:33:53.775Z,9.93
2018-03-01T07:36:22.068Z,10.90
2018-03-01T07:38:49.577Z,9.97
2018-03-01T07:41:17.166Z,9.87
2018-03-01T07:43:45.454Z,11.17
2018-03-01T07:46:13.019Z,10.13
2018-03-01T07:48:41.296Z,10.10
2018-03-01T07:51:09.600Z,10.00
2018-03-01T07:53:37.161Z,10.20
2018-03-01T07:56:04.668Z,10.20
2018-03-01T07:58:32.197Z,9.57
2018-03-01T08:00:59.715Z,8.50
2018-03-01T08:03:28.001Z,9.60
2018-03-01T08:05:55.516Z,9.03
2018-03-01T08:08:23.074Z,11.07
2018-03-01T08:10:50.589Z,11.00
2018-03-01T08:13:18.140Z,9.40
2018-03-01T08:15:46.428Z,10.00
2018-03-01T08:18:13.968Z,8.67
2018-03-01T08:20:42.251Z,9.00
2018-03-01T08:23:10.568Z,10.77
2018-03-01T08:25:38.085Z,8.53
2018-03-01T08:28:06.414Z,8.67
2018-03-01T08:30:33.924Z,10.33
2018-03-01T08:33:02.202Z,9.80
2018-03-01T08:35:29.745Z,10.67
2018-03-01T08:37:57.269Z,9.87
2018-03-01T08:40:24.802Z,11.17
2018-03-01T08:42:52.331Z,9.23
2018-03-01T08:45:19.880Z,8.40
2018-03-01T08:47:47.399Z,9.80
2018-03-01T08:50:14.935Z,9.57
2018-03-01T08:52:42.461Z,11.63
2018-03-01T08:55:10.763Z,8.53
2018-03-01T08:57:38.303Z,9.30
2018-03-01T09:00:06.618Z,9.47
2018-03-01T09:02:34.141Z,10.60
2018-03-01T09:05:02.446Z,11.47
2018-03-01T09:07:29.968Z,8.70
2018-03-01T09:09:57.482Z,9.07
2018-03-01T09:12:25.021Z,8.87
2018-03-01T09:14:53.298Z,7.30
2018-03-01T09:17:20.828Z,9.37
2018-03-01T09:19:48.347Z,8.80
2018-03-01T09:22:15.886Z,10.50
2018-03-01T09:24:43.446Z,9.53
2018-03-01T09:27:10.961Z,8.77
2018-03-01T09:29:38.505Z,9.13
2018-03-01T09:32:06.028Z,8.67
2018-03-01T09:34:33.547Z,9.13
2018-03-01T09:37:01.085Z,8.20
2018-03-01T09:39:28.609Z,9.77
2018-03-01T09:41:56.159Z,9.40
2018-03-01T09:44:24.439Z,9.67
2018-03-01T09:46:52.716Z,8.60
2018-03-01T09:49:20.249Z,9.50
2018-03-01T09:51:47.775Z,9.60
2018-03-01T09:54:15.583Z,9.80
2018-03-01T09:56:44.484Z,9.97
2018-03-01T09:59:13.364Z,9.30
2018-03-01T10:01:42.230Z,8.27
2018-03-01T10:04:11.120Z,10.03
2018-03-01T10:06:39.997Z,11.13
2018-03-01T10:09:08.878Z,9.60
2018-03-01T10:11:37.821Z,8.93
2018-03-01T10:14:06.699Z,9.00
2018-03-01T10:16:35.570Z,9.23
2018-03-01T10:19:04.452Z,10.67
2018-03-01T10:21:33.307Z,8.07
2018-03-01T10:24:02.187Z,9.73
2018-03-01T10:26:31.051Z,8.40
2018-03-01T10:28:59.923Z,11.10
2018-03-01T10:31:28.779Z,8.23
2018-03-01T10:33:57.670Z,8.30
2018-03-01T10:36:26.538Z,8.33
2018-03-01T10:38:55.407Z,9.70
2018-03-01T10:41:24.304Z,8.93
2018-03-01T10:43:53.163Z,12.87
2018-03-01T10:46:22.032Z,8.47
2018-03-01T10:48:50.908Z,8.60
2018-03-01T10:51:19.795Z,9.10
2018-03-01T10:53:48.647Z,8.97
2018-03-01T10:56:17.539Z,10.37
2018-03-01T10:58:46.402Z,8.10
2018-03-01T11:01:19.116Z,8.00
2018-03-01T11:03:47.935Z,7.97
2018-03-01T11:06:16.815Z,9.77
2018-03-01T11:08:45.676Z,7.20
2018-03-01T11:11:14.552Z,8.20
2018-03-01T11:13:43.416Z,9.73
2018-03-01T11:16:12.319Z,10.30
2018-03-01T11:18:41.178Z,8.13
2018-03-01T11:21:10.043Z,8.47
2018-03-01T11:23:38.915Z,9.67
2018-03-01T11:26:07.767Z,8.70
2018-03-01T11:28:36.635Z,7.83
2018-03-01T11:31:05.516Z,7.60
2018-03-01T11:33:34.384Z,9.50
2018-03-01T11:36:03.239Z,9.83
2018-03-01T11:38:32.116Z,6.67
2018-03-01T11:41:00.993Z,7.83
2018-03-01T11:43:29.871Z,9.13
2018-03-01T11:45:58.734Z,8.27
2018-03-01T11:48:27.613Z,7.93
2018-03-01T11:50:56.482Z,8.37
2018-03-01T11:53:25.393Z,8.03
2018-03-01T11:55:54.341Z,8.17
2018-03-01T11:58:23.255Z,8.80
2018-03-01T12:00:52.133Z,8.23
2018-03-01T12:03:21.014Z,7.93
2018-03-01T12:05:49.883Z,9.23
2018-03-01T12:08:18.778Z,8.90
2018-03-01T12:10:47.647Z,7.60
2018-03-01T12:13:16.532Z,8.17
2018-03-01T12:15:45.411Z,7.90
2018-03-01T12:18:14.267Z,9.53
2018-03-01T12:20:43.158Z,7.50
2018-03-01T12:23:12.029Z,7.17
2018-03-01T12:25:40.905Z,8.33
2018-03-01T12:28:09.786Z,8.30
2018-03-01T12:30:38.690Z,8.83
2018-03-01T12:33:07.548Z,7.50
2018-03-01T12:35:36.484Z,7.80
2018-03-01T12:38:05.363Z,6.67
2018-03-01T12:40:34.235Z,8.10
2018-03-01T12:43:03.119Z,7.67
2018-03-01T12:45:32.000Z,8.43
2018-03-01T12:48:00.859Z,7.80
2018-03-01T12:50:29.740Z,8.57
2018-03-01T12:52:58.604Z,7.13
2018-03-01T12:55:27.496Z,7.33
2018-03-01T12:57:56.155Z,9.97
2018-03-01T13:00:24.429Z,8.43
2018-03-01T13:02:51.996Z,10.83
2018-03-01T13:05:21.508Z,7.50
2018-03-01T13:07:50.391Z,7.83
2018-03-01T13:10:19.266Z,9.43
2018-03-01T13:12:48.159Z,8.40
2018-03-01T13:15:17.024Z,8.03
2018-03-01T13:17:45.899Z,7.87
2018-03-01T13:20:14.762Z,7.93
2018-03-01T13:22:43.643Z,8.37
2018-03-01T13:25:12.512Z,7.33
2018-03-01T13:27:41.403Z,8.27
2018-03-01T13:30:10.252Z,9.00
2018-03-01T13:32:41.694Z,8.23
2018-03-01T13:35:10.551Z,8.87
2018-03-01T13:37:39.446Z,8.60
2018-03-01T13:40:08.310Z,8.20
2018-03-01T13:42:42.066Z,9.70
2018-03-01T13:45:10.923Z,9.47
2018-03-01T13:47:42.467Z,9.20
2018-03-01T13:50:11.328Z,8.73
2018-03-01T13:52:40.245Z,9.87
2018-03-01T13:55:09.107Z,9.37
2018-03-01T13:57:37.983Z,9.87
2018-03-01T14:00:06.863Z,10.20
2018-03-01T14:02:35.734Z,9.90
2018-03-01T14:05:04.635Z,11.17
2018-03-01T14:07:50.311Z,11.53
2018-03-01T14:10:19.200Z,13.83
2018-03-01T14:13:01.881Z,11.97
2018-03-01T14:15:30.779Z,12.10
2018-03-01T14:18:15.343Z,10.90
2018-03-01T14:21:03.955Z,10.93
2018-03-01T14:23:38.479Z,11.00
2018-03-01T14:26:12.843Z,12.47
2018-03-01T14:28:42.400Z,12.53
2018-03-01T14:31:11.277Z,13.20
2018-03-01T14:33:40.172Z,12.53
2018-03-01T14:36:09.059Z,12.00
2018-03-01T14:38:38.467Z,12.40
2018-03-01T14:41:07.335Z,13.10
2018-03-01T14:43:36.239Z,13.20
2018-03-01T14:46:05.111Z,12.30
2018-03-01T14:48:33.972Z,11.80
2018-03-01T14:51:02.870Z,12.30
2018-03-01T14:53:31.727Z,12.70
2018-03-01T14:56:00.625Z,13.60
2018-03-01T14:58:29.518Z,13.20
2018-03-01T15:00:58.422Z,12.93
2018-03-01T15:03:27.308Z,14.10
2018-03-01T15:05:56.191Z,13.10
2018-03-01T15:08:25.064Z,13.03
2018-03-01T15:10:53.950Z,13.00
2018-03-01T15:13:22.811Z,12.73
2018-03-01T15:15:51.716Z,13.40
2018-03-01T15:18:20.579Z,13.03
2018-03-01T15:20:49.468Z,14.07
2018-03-01T15:23:18.332Z,13.33
2018-03-01T15:25:47.208Z,13.00
2018-03-01T15:28:16.082Z,13.10
2018-03-01T15:30:44.990Z,13.90
2018-03-01T15:33:13.852Z,15.50
2018-03-01T15:35:42.747Z,14.37
2018-03-01T15:38:11.624Z,13.10
2018-03-01T15:40:40.516Z,13.23
2018-03-01T15:43:09.380Z,13.33
2018-03-01T15:45:38.247Z,13.37
2018-03-01T15:48:07.146Z,13.80
2018-03-01T15:50:36.021Z,14.00
2018-03-01T15:53:04.904Z,14.07
2018-03-01T15:55:33.795Z,13.63
2018-03-01T15:58:02.671Z,13.60
2018-03-01T16:00:31.527Z,15.10
2018-03-01T16:03:00.417Z,15.10
2018-03-01T16:05:29.304Z,14.27
2018-03-01T16:07:58.183Z,15.50
2018-03-01T16:10:27.046Z,14.77
2018-03-01T16:12:55.952Z,16.80
2018-03-01T16:15:24.815Z,15.20
2018-03-01T16:17:53.719Z,14.33
2018-03-01T16:20:22.581Z,14.57
2018-03-01T16:22:51.470Z,15.57
2018-03-01T16:25:20.338Z,15.30
2018-03-01T16:27:49.221Z,16.20
2018-03-01T16:30:18.169Z,14.27
2018-03-01T16:32:47.043Z,15.00
2018-03-01T16:35:15.980Z,18.17
2018-03-01T16:37:44.843Z,14.80
2018-03-01T16:40:13.731Z,16.13
2018-03-01T16:42:42.037Z,16.77
2018-03-01T16:45:10.924Z,15.63
2018-03-01T16:47:39.801Z,15.53
2018-03-01T16:50:09.536Z,16.27
2018-03-01T16:52:38.407Z,16.00
2018-03-01T16:55:07.304Z,14.33
2018-03-01T16:57:36.174Z,14.03
2018-03-01T17:00:05.055Z,18.27
2018-03-01T17:02:33.919Z,15.87
2018-03-01T17:05:02.791Z,14.83
2018-03-01T17:07:31.660Z,15.23
2018-03-01T17:10:00.568Z,14.43
2018-03-01T17:12:29.455Z,14.87
2018-03-01T17:14:58.325Z,15.00
2018-03-01T17:17:27.203Z,15.77
2018-03-01T17:19:56.067Z,15.73
2018-03-01T17:22:24.954Z,13.70
2018-03-01T17:24:53.848Z,15.80
2018-03-01T17:27:22.735Z,14.10
2018-03-01T17:29:51.595Z,15.57
2018-03-01T17:32:20.470Z,15.57
2018-03-01T17:34:49.348Z,18.67
2018-03-01T17:37:18.224Z,15.53
2018-03-01T17:39:47.090Z,15.80
2018-03-01T17:42:15.978Z,15.03
2018-03-01T17:44:44.843Z,16.27
2018-03-01T17:47:13.744Z,15.23
2018-03-01T17:49:42.606Z,15.17
2018-03-01T17:52:11.467Z,16.57
2018-03-01T17:54:40.339Z,15.43
2018-03-01T17:57:09.195Z,14.23
2018-03-01T17:59:38.078Z,16.43
2018-03-01T18:02:06.947Z,15.43
2018-03-01T18:04:35.820Z,14.73
2018-03-01T18:07:04.684Z,15.30
2018-03-01T18:09:33.565Z,14.60
2018-03-01T18:12:02.428Z,14.00
2018-03-01T18:14:31.343Z,15.33
2018-03-01T18:17:00.199Z,14.87
2018-03-01T18:19:29.090Z,14.50
2018-03-01T18:21:58.124Z,14.27
2018-03-01T18:24:27.034Z,14.73
2018-03-01T18:26:55.898Z,15.33
2018-03-01T18:29:24.792Z,14.70
2018-03-01T18:31:53.680Z,13.77
2018-03-01T18:34:22.556Z,15.13
2018-03-01T18:36:51.697Z,15.00
2018-03-01T18:39:20.580Z,13.90
2018-03-01T18:41:49.459Z,14.30
2018-03-01T18:44:18.337Z,13.63
2018-03-01T18:46:47.215Z,14.87
2018-03-01T18:49:16.071Z,14.60
2018-03-01T18:51:44.948Z,13.67
2018-03-01T18:54:13.815Z,15.03
2018-03-01T18:56:42.691Z,13.73
2018-03-01T18:59:11.579Z,14.47
2018-03-01T19:01:40.460Z,13.60
2018-03-01T19:04:09.324Z,13.63
2018-03-01T19:06:38.343Z,14.60
2018-03-01T19:09:07.208Z,12.87
2018-03-01T19:11:36.132Z,12.70
2018-03-01T19:14:05.023Z,12.60
2018-03-01T19:16:33.888Z,14.10
2018-03-01T19:19:02.767Z,13.47
2018-03-01T19:21:31.639Z,14.53
2018-03-01T19:24:00.542Z,12.37
2018-03-01T19:26:29.569Z,12.87
2018-03-01T19:28:58.493Z,13.10
2018-03-01T19:31:27.380Z,14.27
2018-03-01T19:33:56.255Z,14.33
2018-03-01T19:36:25.133Z,16.23
2018-03-01T19:38:54.011Z,11.90
2018-03-01T19:41:22.871Z,14.37
2018-03-01T19:43:51.744Z,13.43
2018-03-01T19:46:20.635Z,13.77
2018-03-01T19:48:49.500Z,13.23
2018-03-01T19:51:18.378Z,13.10
2018-03-01T19:53:47.235Z,13.83
2018-03-01T19:56:16.119Z,14.30
2018-03-01T19:58:44.985Z,12.40
2018-03-01T20:01:13.873Z,13.63
2018-03-01T20:03:42.746Z,12.50
2018-03-01T20:06:11.621Z,14.10
2018-03-01T20:08:40.509Z,13.20
2018-03-01T20:11:09.488Z,16.17
2018-03-01T20:13:38.355Z,13.30
2018-03-01T20:16:07.250Z,13.97
2018-03-01T20:18:36.107Z,13.70
2018-03-01T20:21:05.015Z,14.57
2018-03-01T20:23:33.882Z,15.30
2018-03-01T20:26:02.765Z,13.43
2018-03-01T20:28:31.644Z,16.40
2018-03-01T20:31:00.513Z,15.90
2018-03-01T20:33:29.387Z,14.47
2018-03-01T20:35:58.255Z,14.80
2018-03-01T20:38:27.130Z,14.87
2018-03-01T20:40:56.001Z,15.03
2018-03-01T20:43:24.895Z,15.07
2018-03-01T20:45:53.821Z,15.40
2018-03-01T20:48:22.710Z,17.50
2018-03-01T20:50:51.592Z,14.60
2018-03-01T20:53:20.467Z,15.13
2018-03-01T20:55:49.334Z,15.13
2018-03-01T20:58:18.219Z,14.37
2018-03-01T21:00:47.078Z,14.57
2018-03-01T21:03:15.954Z,15.03
2018-03-01T21:05:44.881Z,16.63
2018-03-01T21:08:13.776Z,16.53
2018-03-01T21:10:42.639Z,15.07
2018-03-01T21:13:11.532Z,14.00
2018-03-01T21:15:40.395Z,15.27
2018-03-01T21:18:08.328Z,15.90
2018-03-01T21:20:35.864Z,13.97
2018-03-01T21:23:03.370Z,19.10
2018-03-01T21:25:30.939Z,16.10
2018-03-01T21:27:58.469Z,16.80
2018-03-01T21:30:26.017Z,18.53
2018-03-01T21:32:54.296Z,17.17
2018-03-01T21:35:22.598Z,17.67
2018-03-01T21:37:50.134Z,16.90
2018-03-01T21:40:18.439Z,16.10
2018-03-01T21:42:45.955Z,17.30
2018-03-01T21:45:13.480Z,16.23
2018-03-01T21:47:41.000Z,16.87
2018-03-01T21:50:08.557Z,17.33
2018-03-01T21:52:36.834Z,20.87
2018-03-01T21:55:05.120Z,18.63
2018-03-01T21:57:32.648Z,16.67
2018-03-01T22:00:00.182Z,16.40
2018-03-01T22:02:27.726Z,16.33
2018-03-01T22:04:55.257Z,16.57
2018-03-01T22:07:22.797Z,19.10
2018-03-01T22:09:51.102Z,19.50
2018-03-01T22:12:18.634Z,16.10
2018-03-01T22:14:46.151Z,17.10
2018-03-01T22:17:13.675Z,19.70
2018-03-01T22:19:41.205Z,17.03
2018-03-01T22:22:08.773Z,16.53
2018-03-01T22:24:37.091Z,20.20
2018-03-01T22:27:04.625Z,20.13
2018-03-01T22:29:32.192Z,19.17
2018-03-01T22:32:00.490Z,17.93
2018-03-01T22:34:28.028Z,21.40
2018-03-01T22:36:56.304Z,19.57
2018-03-01T22:39:24.612Z,21.23
2018-03-01T22:41:52.119Z,21.00
2018-03-01T22:44:19.654Z,18.80
2018-03-01T22:46:47.176Z,21.80
2018-03-01T22:49:14.712Z,20.00
2018-03-01T22:51:43.006Z,20.07
2018-03-01T22:54:10.537Z,21.97
2018-03-01T22:56:38.074Z,20.60
2018-03-01T22:59:05.622Z,21.27
2018-03-01T23:01:33.149Z,22.20
2018-03-01T23:04:00.667Z,21.97
2018-03-01T23:06:28.196Z,20.73
2018-03-01T23:08:55.731Z,21.10
2018-03-01T23:11:23.265Z,22.93
2018-03-01T23:13:51.615Z,22.60
2018-03-01T23:16:19.148Z,21.17
2018-03-01T23:18:46.674Z,19.23
2018-03-01T23:21:14.238Z,20.70
2018-03-01T23:23:42.525Z,20.97
2018-03-01T23:26:10.073Z,18.80
2018-03-01T23:28:38.384Z,26.07
2018-03-01T23:31:05.932Z,22.93
2018-03-01T23:33:33.462Z,22.30
2018-03-01T23:36:01.805Z,19.10
2018-03-01T23:38:29.315Z,21.70
2018-03-01T23:40:57.652Z,21.70
2018-03-01T23:43:25.183Z,20.07
2018-03-01T23:45:52.695Z,22.47
2018-03-01T23:48:20.241Z,23.00
2018-03-01T23:50:47.762Z,19.23
2018-03-01T23:53:16.017Z,19.70
2018-03-01T23:55:43.555Z,24.03
2018-03-01T23:58:11.896Z,20.23
